Meteo Giornale » Osservazioni meteo Italia » Gioia Del Colle

ore: 02:55 - Osservazioni Meteo Gioia Del Colle
Lat. 40° 46' N Lon. 16° 56' E Alt. 345 metri s.l.m.

sereno Europe/Rome

19 °C

Sereno

Temp. 24 Ore

16 °C

33 °C

Nord

3.7 Km/h

Dew point 10 °C

Umidità 55 %

Visibilità  10 Km

Il sole sorge alle ore 05:20

Il sole tramonta alle ore 20:29

Data e Ora Cielo e Fenomeni T °C DP °C Um. % Pres. hPa Vis. km Vento km/h
Oggi h: 02:55 sereno Sereno 19 10 55 1018 10 N 3.7
Oggi h: 01:55 sereno Sereno 20 13 64 1018 10 O/SO 14.8
Oggi h: 00:55 sereno Sereno 20 13 64 1018 10 N 0
Ieri h: 23:55 sereno Sereno 21 13 60 1018 10 N 1.8
Ieri h: 22:55 sereno Sereno 22 12 53 1018 10 N 3.7
Ieri h: 20:55 sereno Sereno 25 9 36 1017 10 N 5.5
Ieri h: 19:55 sereno Sereno 28 8 28 1017 10 S 9.3
Ieri h: 18:55 sereno Sereno 29 8 26 1017 10 S 16.7
Ieri h: 17:55 sereno Sereno 30 7 23 1017 10 S/SE 16.7
Ieri h: 16:55 sereno Sereno 32 6 19 1017 10 S/SE 13
Ieri h: 15:55 sereno Sereno 33 7 19 1017 10 E 9.3
Ieri h: 14:55 sereno Sereno 32 7 21 1017 10 N 13
Ieri h: 13:55 sereno Sereno 32 6 19 1018 10 N 11.1
Ieri h: 12:55 poco_nuvoloso Poco Nuvoloso 31 6 20 1018 10 N 5.5
Ieri h: 11:55 sereno Sereno 31 6 20 1018 10 N/NO 11.1
Ieri h: 10:55 sereno Sereno 30 6 22 1018 10 N 9.3
Ieri h: 09:55 sereno Sereno 29 5 21 1018 10 N 13
Ieri h: 08:55 sereno Sereno 27 9 32 1018 10 N 9.3
Ieri h: 07:55 sereno Sereno 24 14 53 1017 10 N 7.4
Ieri h: 06:55 sereno Sereno 19 14 72 1017 10 N 1.8
Ieri h: 05:55 sereno Sereno 16 14 87 1017 10 N 1.8
Ieri h: 04:55 sereno Sereno 17 14 82 1017 10 N 1.8
Ieri h: 03:55 sereno Sereno 17 14 82 1017 10 N 1.8